Time;durP1;ratioP1;P1;durP2;ratioP2;P2;SDS_P1;SDS_P2;PMS_P1;PMS_P2;Temp;Humidity;BMP_temperature;BMP_pressure;BME280_temperature;BME280_humidity;BME280_pressure;Samples;Min_cycle;Max_cycle;Signal;HPM_P1;HPM_P2
2021/07/10 00:00:13;;;;;;;40.72;31.00;;;19.10;99.90;;;19.66;76.48;101893.94;4995310;28;20046;-67
2021/07/10 00:02:42;;;;;;;42.80;32.25;;;19.20;99.90;;;19.68;76.33;101880.47;4994992;28;20047;-67
2021/07/10 00:05:14;;;;;;;40.72;29.90;;;19.30;99.90;;;19.76;76.19;101887.38;4995238;28;20081;-67
2021/07/10 00:07:44;;;;;;;38.95;29.27;;;19.30;99.90;;;19.42;77.27;101856.94;5010219;28;20053;-67
2021/07/10 00:10:16;;;;;;;43.30;30.05;;;19.20;99.90;;;19.74;76.59;101886.53;4995041;28;20053;-67
2021/07/10 00:12:45;;;;;;;44.90;31.90;;;19.30;99.90;;;19.77;76.13;101878.41;4994829;28;20399;-67
2021/07/10 00:15:19;;;;;;;39.38;29.10;;;19.30;99.90;;;19.51;75.80;101858.53;4995008;28;20105;-67
2021/07/10 00:17:48;;;;;;;43.85;31.08;;;19.30;99.90;;;19.80;75.58;101872.09;5010196;28;20084;-67
2021/07/10 00:20:19;;;;;;;41.22;29.77;;;19.40;99.90;;;19.79;75.39;101868.50;4993370;28;20393;-67
2021/07/10 00:22:48;;;;;;;42.97;29.98;;;19.40;99.90;;;19.57;76.02;101871.78;4994850;28;20494;-67
2021/07/10 00:25:19;;;;;;;37.45;25.75;;;19.20;99.90;;;19.43;76.63;101880.19;4994933;28;20050;-67
2021/07/10 00:27:51;;;;;;;36.97;28.60;;;19.10;99.90;;;19.30;77.57;101873.31;4994597;28;20385;-67
2021/07/10 00:30:20;;;;;;;41.25;30.38;;;18.90;99.90;;;19.57;77.19;101864.59;4994779;28;20077;-68
2021/07/10 00:32:50;;;;;;;38.30;29.35;;;19.10;99.90;;;19.66;76.13;101855.44;4994700;28;20042;-67
2021/07/10 00:35:21;;;;;;;34.90;27.13;;;19.30;99.90;;;19.83;75.67;101863.06;4994396;28;20042;-67
2021/07/10 00:37:50;;;;;;;42.42;31.52;;;19.40;99.90;;;19.87;75.06;101860.25;4994565;28;20042;-67
2021/07/10 00:40:18;;;;;;;40.10;30.20;;;19.50;99.90;;;19.89;74.97;101858.41;4994618;28;20088;-67
2021/07/10 00:42:47;;;;;;;43.25;31.60;;;19.50;99.90;;;20.05;75.41;101849.03;4994485;28;20039;-67
2021/07/10 00:45:17;;;;;;;39.83;30.88;;;19.60;99.90;;;20.00;75.52;101855.41;4993189;28;20050;-67
2021/07/10 00:47:46;;;;;;;38.50;29.60;;;19.60;99.90;;;19.92;75.17;101855.63;4993281;28;20050;-67
2021/07/10 00:50:17;;;;;;;38.50;28.70;;;19.50;99.90;;;20.06;75.06;101852.56;4994199;28;20074;-67
2021/07/10 00:52:47;;;;;;;41.92;28.70;;;19.60;99.90;;;19.99;75.30;101838.44;4994382;28;20077;-67
2021/07/10 00:55:17;;;;;;;42.22;29.42;;;19.60;99.90;;;20.01;75.58;101838.38;4994321;28;20050;-68
2021/07/10 00:57:47;;;;;;;39.30;30.52;;;19.60;99.90;;;19.96;76.14;101846.56;4994339;28;20062;-67
2021/07/10 01:00:19;;;;;;;40.35;30.38;;;19.50;99.90;;;19.92;76.65;101842.19;4994315;28;20038;-67
2021/07/10 01:02:49;;;;;;;40.03;29.52;;;19.50;99.90;;;19.92;76.75;101825.22;4992952;28;20074;-67
2021/07/10 01:05:21;;;;;;;42.95;30.40;;;19.50;99.90;;;19.94;76.06;101844.88;4993841;28;20108;-67
2021/07/10 01:07:52;;;;;;;41.00;30.42;;;19.50;99.90;;;19.44;76.07;101779.97;4994420;28;20034;-67
2021/07/10 01:10:20;;;;;;;34.20;26.42;;;19.40;99.90;;;19.69;76.31;101836.56;4993905;28;20042;-67
2021/07/10 01:12:52;;;;;;;30.55;23.95;;;19.30;99.90;;;19.61;76.49;101835.88;4993071;28;20042;-67
2021/07/10 01:15:23;;;;;;;40.40;29.10;;;19.20;99.90;;;19.52;76.64;101837.00;4994350;28;20047;-67
2021/07/10 01:17:53;;;;;;;40.25;31.00;;;19.10;99.90;;;19.43;76.36;101825.63;4992796;28;20046;-68
2021/07/10 01:20:23;;;;;;;37.78;28.85;;;19.10;99.90;;;19.37;76.77;101825.78;4993660;28;20038;-67
2021/07/10 01:22:53;;;;;;;42.10;31.13;;;18.90;99.90;;;18.62;77.52;101716.75;4993613;28;20129;-67
2021/07/10 01:25:25;;;;;;;40.22;28.83;;;18.80;99.90;;;19.18;78.00;101792.25;4993835;28;20057;-65
2021/07/10 01:27:55;;;;;;;43.50;30.00;;;18.80;99.90;;;19.31;78.12;101815.16;4993691;28;20428;-65
2021/07/10 01:30:25;;;;;;;50.17;35.72;;;18.90;99.90;;;19.19;78.44;101815.47;4993762;28;20065;-65
2021/07/10 01:32:55;;;;;;;42.30;32.45;;;18.80;99.90;;;19.10;79.04;101807.66;4993817;28;20050;-65
2021/07/10 01:35:24;;;;;;;48.50;34.60;;;18.70;99.90;;;19.18;79.10;101793.13;4993911;28;20054;-64
2021/07/10 01:37:54;;;;;;;50.78;35.28;;;18.70;99.90;;;19.29;79.04;101803.59;4992562;28;20093;-64
2021/07/10 01:40:25;;;;;;;57.15;35.22;;;18.90;99.90;;;19.33;78.61;101792.78;4993709;28;20125;-65
2021/07/10 01:42:54;;;;;;;53.47;34.50;;;18.90;99.90;;;19.33;78.50;101797.25;4993692;28;20045;-64
2021/07/10 01:45:24;;;;;;;56.78;35.47;;;18.90;99.90;;;19.42;78.26;101794.34;4993549;28;20121;-64
2021/07/10 01:47:53;;;;;;;54.67;35.35;;;19.00;99.90;;;19.29;78.47;101795.53;5008876;28;20483;-65
2021/07/10 01:50:23;;;;;;;56.75;36.47;;;19.00;99.90;;;19.32;78.47;101785.63;4996988;28;20054;-64
2021/07/10 01:52:53;;;;;;;54.60;35.72;;;19.00;99.90;;;19.11;79.09;101783.47;5012846;28;20054;-64
2021/07/10 01:55:22;;;;;;;55.42;35.33;;;18.90;99.90;;;18.99;79.66;101796.31;5012791;28;20495;-64
2021/07/10 01:57:53;;;;;;;51.33;34.33;;;18.70;99.90;;;18.99;80.88;101799.84;4997703;28;20053;-64
2021/07/10 02:00:24;;;;;;;54.60;33.30;;;18.60;99.90;;;19.07;80.43;101797.88;4997419;28;20039;-65
2021/07/10 02:02:54;;;;;;;54.20;35.35;;;18.60;99.90;;;19.09;79.92;101793.34;4997513;28;20046;-65
2021/07/10 02:05:25;;;;;;;53.58;33.88;;;18.60;99.90;;;19.12;79.47;101787.94;4997552;28;20073;-65
2021/07/10 02:07:58;;;;;;;53.88;35.28;;;18.70;99.90;;;19.23;79.08;101795.69;4997490;28;20046;-64
2021/07/10 02:10:29;;;;;;;51.47;34.95;;;18.80;99.90;;;19.26;78.71;101787.59;4997226;28;20096;-65
2021/07/10 02:13:01;;;;;;;47.33;30.50;;;18.80;99.90;;;19.33;78.02;101781.16;4997107;28;20488;-65
2021/07/10 02:15:30;;;;;;;44.95;31.92;;;18.90;99.90;;;19.35;77.66;101782.00;4997401;28;20050;-65
2021/07/10 02:17:59;;;;;;;49.35;33.30;;;18.90;99.90;;;19.42;77.48;101788.97;5012304;28;20050;-65
2021/07/10 02:20:28;;;;;;;45.63;33.70;;;19.00;99.90;;;19.43;77.13;101786.25;4996954;28;20125;-65
2021/07/10 02:22:59;;;;;;;51.17;33.95;;;19.00;99.90;;;19.45;77.01;101786.22;4997044;28;20400;-65
2021/07/10 02:25:30;;;;;;;45.17;32.40;;;19.10;99.90;;;19.45;76.77;101781.72;4997162;28;20134;-65
2021/07/10 02:27:59;;;;;;;40.90;28.88;;;19.00;99.90;;;19.48;77.27;101783.44;4997156;28;20484;-65
2021/07/10 02:30:32;;;;;;;33.53;26.33;;;19.00;99.90;;;19.49;77.21;101779.84;5012086;28;20054;-64
2021/07/10 02:33:02;;;;;;;32.05;22.25;;;19.00;99.90;;;19.34;76.93;101780.22;4997092;28;20042;-65
2021/07/10 02:35:31;;;;;;;28.45;21.58;;;18.90;99.90;;;19.22;76.98;101773.34;4995724;28;20054;-65
2021/07/10 02:38:01;;;;;;;25.75;20.33;;;18.80;99.90;;;19.09;77.41;101760.28;4996879;28;20369;-65
2021/07/10 02:40:30;;;;;;;19.30;16.60;;;18.80;99.90;;;19.15;78.72;101770.84;4997170;28;20077;-65
2021/07/10 02:42:58;;;;;;;19.67;15.98;;;18.70;99.90;;;19.15;78.51;101765.50;4996809;28;20097;-64
2021/07/10 02:45:27;;;;;;;22.50;17.88;;;18.70;99.90;;;19.12;78.35;101762.91;4995497;28;20050;-65
2021/07/10 02:47:57;;;;;;;25.02;19.33;;;18.70;99.90;;;19.11;77.91;101759.31;4996396;28;20046;-65
2021/07/10 02:50:27;;;;;;;22.33;17.83;;;18.60;99.90;;;19.12;77.84;101757.53;4996767;28;20058;-65
2021/07/10 02:52:55;;;;;;;24.90;20.15;;;18.60;99.90;;;19.09;78.01;101753.13;4996721;28;20096;-65
2021/07/10 02:55:26;;;;;;;34.08;25.45;;;18.70;99.90;;;19.15;78.19;101749.41;4996640;28;20053;-65
2021/07/10 02:57:54;;;;;;;30.75;22.50;;;18.70;99.90;;;19.28;77.62;101732.09;5011483;28;20050;-65
2021/07/10 03:00:26;;;;;;;25.67;19.83;;;18.90;99.90;;;19.22;77.59;101742.97;5010280;28;20051;-65
2021/07/10 03:02:54;;;;;;;21.67;16.42;;;18.80;99.90;;;19.17;77.82;101742.19;4996496;28;20407;-65
2021/07/10 03:05:23;;;;;;;16.90;14.50;;;18.70;99.90;;;19.13;77.75;101729.78;4996412;28;20097;-65
2021/07/10 03:07:52;;;;;;;20.25;15.77;;;18.70;99.90;;;19.14;77.81;101737.81;4996370;28;20125;-65
2021/07/10 03:10:25;;;;;;;21.02;16.85;;;18.70;99.90;;;19.09;77.55;101744.19;4996035;28;20050;-65
2021/07/10 03:12:56;;;;;;;19.00;16.42;;;18.60;99.90;;;19.08;77.09;101743.31;4996290;28;20112;-65
2021/07/10 03:15:25;;;;;;;30.75;22.33;;;18.60;99.90;;;19.07;76.93;101729.94;4996246;28;20051;-65
2021/07/10 03:17:55;;;;;;;28.50;21.52;;;18.60;99.90;;;19.18;77.06;101735.91;4995885;28;20122;-65
2021/07/10 03:20:25;;;;;;;25.45;20.67;;;18.70;99.90;;;19.17;76.90;101736.81;4996233;28;20474;-65
2021/07/10 03:22:54;;;;;;;17.00;13.82;;;18.70;99.90;;;19.04;77.12;101741.63;4996039;28;20042;-66
2021/07/10 03:25:23;;;;;;;16.35;14.13;;;18.60;99.90;;;19.01;77.41;101733.66;4995663;28;20535;-65
2021/07/10 03:27:53;;;;;;;12.77;11.48;;;18.60;99.90;;;18.96;77.74;101726.66;4996012;28;20101;-65
2021/07/10 03:30:24;;;;;;;;;;;18.50;99.90;;;18.93;77.91;101730.28;4996322;28;20105;-65
2021/07/10 03:32:52;;;;;;;9.07;7.93;;;18.50;99.90;;;18.89;78.07;101732.16;4995675;28;19926;-64
2021/07/10 03:35:22;;;;;;;6.95;6.22;;;18.40;99.90;;;18.82;78.22;101725.19;5011018;28;20444;-65
2021/07/10 03:37:52;;;;;;;6.75;5.40;;;18.40;99.90;;;18.67;78.91;101722.91;4996344;28;20046;-65
2021/07/10 03:40:24;;;;;;;7.37;6.67;;;18.20;99.90;;;18.50;79.21;101673.28;4995824;28;20050;-65
2021/07/10 03:42:56;;;;;;;9.80;8.13;;;18.30;99.90;;;18.56;79.35;101676.69;4995702;28;20054;-65
2021/07/10 03:45:24;;;;;;;10.07;8.32;;;18.30;99.90;;;18.68;79.14;101721.97;4994386;28;20476;-64
2021/07/10 03:47:53;;;;;;;11.02;9.85;;;18.30;99.90;;;18.64;78.57;101720.28;4995828;28;20053;-64
2021/07/10 03:50:21;;;;;;;8.40;7.60;;;18.20;99.90;;;18.55;78.19;101714.25;4995709;28;20050;-65
2021/07/10 03:52:50;;;;;;;11.98;10.50;;;18.10;99.90;;;18.54;78.55;101713.34;4995325;28;20526;-65
2021/07/10 03:55:19;;;;;;;13.52;9.65;;;18.10;99.90;;;18.53;79.40;101706.25;4995406;28;20050;-66
2021/07/10 03:57:47;;;;;;;16.95;11.95;;;18.10;99.90;;;18.61;79.92;101698.91;4995477;28;20145;-65
2021/07/10 04:00:20;;;;;;;17.42;12.73;;;18.10;99.90;;;18.69;79.67;101709.44;5010431;28;20062;-65
2021/07/10 04:02:49;;;;;;;20.55;12.43;;;18.20;99.90;;;18.69;79.53;101707.66;4994173;28;20050;-65
2021/07/10 04:05:17;;;;;;;15.02;10.88;;;18.30;99.90;;;18.66;79.37;101702.34;4995201;28;20141;-65
2021/07/10 04:07:46;;;;;;;14.45;11.75;;;18.20;99.90;;;18.66;79.35;101691.63;4995154;28;20056;-65
2021/07/10 04:10:15;;;;;;;15.93;12.75;;;18.30;99.90;;;18.64;78.69;101698.81;4995166;28;20038;-65
2021/07/10 04:12:46;;;;;;;17.70;13.20;;;18.20;99.90;;;18.42;78.70;101649.38;5009857;28;20062;-65
2021/07/10 04:15:18;;;;;;;22.42;16.48;;;18.20;99.90;;;18.61;78.15;101696.25;4995180;28;20487;-65
2021/07/10 04:17:47;;;;;;;21.48;16.67;;;18.20;99.90;;;18.59;78.68;101695.38;4994824;28;20045;-65
2021/07/10 04:20:19;;;;;;;19.42;14.77;;;18.10;99.90;;;18.59;80.28;101690.03;4994944;28;20173;-65
2021/07/10 04:22:48;;;;;;;19.20;15.75;;;18.10;99.90;;;18.64;80.68;101698.81;4995199;28;20054;-65
2021/07/10 04:25:19;;;;;;;15.95;13.75;;;18.20;99.90;;;18.56;81.29;101706.16;4994700;28;20108;-65
2021/07/10 04:27:48;;;;;;;19.75;15.48;;;18.10;99.90;;;18.64;81.22;101688.09;4994644;28;20062;-65
2021/07/10 04:30:20;;;;;;;26.98;20.70;;;18.20;99.90;;;18.79;80.95;101682.34;4994809;28;20057;-65
2021/07/10 04:32:50;;;;;;;52.05;35.97;;;18.40;99.90;;;18.78;80.95;101679.72;4994759;28;20054;-65
2021/07/10 04:35:20;;;;;;;;;;;18.40;99.90;;;18.78;80.90;101699.38;5010372;28;20140;-65
2021/07/10 04:37:49;;;;;;;50.85;34.80;;;18.40;99.90;;;18.82;81.24;101693.03;4994686;28;19941;-65
2021/07/10 04:40:18;;;;;;;46.70;31.63;;;18.40;99.90;;;18.01;82.12;101578.00;4994336;28;20408;-65
2021/07/10 04:42:46;;;;;;;41.58;30.55;;;18.20;99.90;;;18.51;82.79;101685.75;4994577;28;20046;-65
2021/07/10 04:45:17;;;;;;;43.50;29.42;;;18.10;99.90;;;18.55;82.44;101679.41;4994485;28;20042;-65
2021/07/10 04:47:45;;;;;;;49.38;32.72;;;18.10;99.90;;;18.47;82.35;101698.34;4994877;28;20050;-65
2021/07/10 04:50:15;;;;;;;47.40;31.58;;;18.00;99.90;;;18.42;83.42;101705.63;4994247;28;20046;-64
2021/07/10 04:52:44;;;;;;;45.80;33.60;;;17.90;99.90;;;18.39;83.94;101692.25;4994279;28;20050;-64
2021/07/10 04:55:15;;;;;;;48.80;34.10;;;17.90;99.90;;;17.66;84.99;101595.75;4994419;28;20042;-64
2021/07/10 04:57:44;;;;;;;;;;;17.80;99.90;;;18.27;84.87;101678.28;4995100;28;20057;-65
2021/07/10 05:00:15;;;;;;;48.50;32.63;;;17.90;99.90;;;18.59;85.51;101698.06;4994333;28;19957;-65
2021/07/10 05:02:45;;;;;;;53.90;36.47;;;18.00;99.90;;;18.83;84.78;101697.44;4994599;28;20448;-65
2021/07/10 05:05:14;;;;;;;54.92;36.42;;;18.30;99.90;;;18.80;84.03;101661.81;4994251;28;20137;-65
2021/07/10 05:07:44;;;;;;;55.63;38.50;;;18.60;99.90;;;19.13;83.39;101693.13;4994250;28;20053;-65
2021/07/10 05:10:13;;;;;;;52.67;36.70;;;18.70;99.90;;;19.12;83.30;101677.97;4993941;28;20052;-65
2021/07/10 05:12:42;;;;;;;55.42;37.70;;;18.80;99.90;;;19.14;82.99;101694.88;4994124;28;20101;-65
2021/07/10 05:15:12;;;;;;;61.53;39.78;;;18.80;99.90;;;18.50;83.51;101620.59;4993831;28;20042;-65
2021/07/10 05:17:40;;;;;;;59.47;40.08;;;18.50;99.90;;;18.82;84.10;101701.06;4993851;28;20511;-65
2021/07/10 05:20:12;;;;;;;60.95;41.72;;;18.40;99.90;;;18.79;84.73;101702.94;5008887;28;20463;-65
2021/07/10 05:22:41;;;;;;;64.35;39.72;;;18.30;99.90;;;18.89;85.20;101697.31;4993841;28;20050;-65
2021/07/10 05:25:12;;;;;;;57.08;38.63;;;18.40;99.90;;;18.92;85.30;101694.56;4993502;28;20089;-65
2021/07/10 05:27:41;;;;;;;57.92;36.08;;;18.40;99.90;;;18.37;84.65;101608.34;4994011;28;20081;-65
2021/07/10 05:30:13;;;;;;;52.40;36.63;;;18.40;99.90;;;19.02;84.42;101688.94;4993754;28;20483;-64
2021/07/10 05:32:42;;;;;;;49.05;35.53;;;18.50;99.90;;;19.28;84.17;101700.75;4993957;28;20105;-64
2021/07/10 05:35:16;;;;;;;47.90;34.38;;;18.70;99.90;;;19.42;83.41;101700.41;4991871;28;20530;-65
2021/07/10 05:37:44;;;;;;;45.60;33.42;;;18.90;99.90;;;19.50;82.93;101693.03;4993961;28;20070;-64
2021/07/10 05:40:13;;;;;;;43.85;33.13;;;19.00;99.90;;;19.52;82.41;101700.13;4993879;28;20116;-65
2021/07/10 05:42:42;;;;;;;47.63;32.08;;;19.00;99.90;;;19.44;82.22;101693.19;4993780;28;20081;-65
2021/07/10 05:45:12;;;;;;;40.25;30.65;;;19.10;99.90;;;19.52;82.87;101697.44;4993788;28;20108;-66
2021/07/10 05:47:40;;;;;;;42.78;31.27;;;19.10;99.90;;;19.45;82.80;101695.81;4993704;28;20054;-65
2021/07/10 05:50:12;;;;;;;44.65;32.70;;;19.00;99.90;;;19.31;83.13;101664.91;4993841;28;20113;-64
2021/07/10 05:52:41;;;;;;;44.55;32.38;;;19.00;99.90;;;19.34;82.95;101681.84;4993836;28;20101;-64
2021/07/10 05:55:10;;;;;;;46.80;32.25;;;19.10;99.90;;;19.42;83.67;101690.56;4993691;28;20046;-65
2021/07/10 05:57:39;;;;;;;41.87;32.10;;;19.00;99.90;;;19.48;83.45;101687.72;4993507;28;20054;-65
2021/07/10 06:00:10;;;;;;;47.90;33.13;;;19.00;99.90;;;19.33;83.16;101685.47;4993636;28;20050;-65
2021/07/10 06:02:39;;;;;;;44.90;33.20;;;18.90;99.90;;;19.43;83.16;101688.78;4993358;28;20050;-65
2021/07/10 06:05:12;;;;;;;50.53;35.03;;;18.90;99.90;;;19.50;83.15;101680.50;4993561;28;20133;-65
2021/07/10 06:07:40;;;;;;;48.25;35.42;;;19.00;99.90;;;19.87;83.09;101690.16;4992675;28;20054;-65
2021/07/10 06:10:11;;;;;;;48.53;34.33;;;19.40;99.90;;;20.04;82.67;101696.81;4993515;28;20411;-65
2021/07/10 06:12:39;;;;;;;47.63;34.35;;;19.60;99.90;;;20.19;82.23;101690.13;4993585;28;20054;-65
2021/07/10 06:15:10;;;;;;;52.88;36.45;;;19.80;99.90;;;20.21;80.77;101697.19;4993579;28;20133;-65
2021/07/10 06:17:40;;;;;;;50.67;37.00;;;19.90;99.90;;;20.05;79.97;101692.31;4993362;28;20042;-66
2021/07/10 06:20:13;;;;;;;47.90;34.70;;;19.80;99.90;;;20.16;80.12;101701.81;4993523;28;20384;-65
2021/07/10 06:22:43;;;;;;;53.05;34.90;;;19.80;99.90;;;20.33;79.70;101693.25;4993602;28;20074;-65
2021/07/10 06:25:14;;;;;;;49.05;34.70;;;19.90;99.90;;;20.36;79.26;101694.03;5008182;28;20085;-65
2021/07/10 06:27:43;;;;;;;50.03;34.20;;;19.90;99.90;;;20.35;79.05;101692.28;5008491;28;20055;-65
2021/07/10 06:30:13;;;;;;;45.30;30.45;;;19.90;99.90;;;20.50;78.69;101688.22;4993435;28;20062;-65
2021/07/10 06:32:42;;;;;;;46.20;31.92;;;20.10;99.90;;;20.70;77.39;101696.53;4993110;28;20562;-65
2021/07/10 06:35:13;;;;;;;41.92;28.75;;;20.30;99.90;;;20.61;76.31;101689.63;5009948;28;20097;-65
2021/07/10 06:37:41;;;;;;;;;;;20.20;99.90;;;20.81;75.72;101691.66;4997461;28;20055;-65
2021/07/10 06:40:12;;;;;;;39.45;28.80;;;20.40;99.90;;;20.84;75.79;101696.06;4997148;28;19926;-65
2021/07/10 06:42:42;;;;;;;39.10;29.30;;;20.40;99.90;;;20.97;74.87;101705.47;4996768;28;20054;-66
2021/07/10 06:45:15;;;;;;;40.47;29.77;;;20.60;99.90;;;21.02;74.85;101700.88;4996748;28;20084;-65
2021/07/10 06:47:45;;;;;;;41.58;27.98;;;20.60;99.90;;;21.10;74.28;101701.50;4996931;28;20105;-65
2021/07/10 06:50:18;;;;;;;42.35;30.38;;;20.70;99.90;;;21.20;73.92;101701.09;4996665;28;20048;-65
2021/07/10 06:52:47;;;;;;;40.97;29.45;;;20.80;99.90;;;21.33;73.58;101706.97;4996763;28;20053;-66
2021/07/10 06:55:17;;;;;;;43.30;30.50;;;20.90;99.90;;;21.35;73.59;101708.63;4996410;28;20068;-64
2021/07/10 06:57:46;;;;;;;43.03;30.02;;;21.00;99.90;;;21.42;73.76;101710.19;4996157;28;20092;-64
2021/07/10 07:00:17;;;;;;;41.55;29.65;;;21.00;99.90;;;21.42;73.68;101701.25;5011447;28;20061;-65
2021/07/10 07:02:45;;;;;;;42.90;31.70;;;21.00;99.90;;;21.40;72.98;101704.00;4996439;28;20054;-65
2021/07/10 07:05:23;;;;;;;43.63;31.63;;;21.00;99.90;;;21.05;74.25;101703.44;4996363;28;20046;-64
2021/07/10 07:07:51;;;;;;;43.95;29.40;;;20.70;99.90;;;21.07;75.33;101697.09;4996547;28;20047;-64
2021/07/10 07:10:20;;;;;;;42.83;30.08;;;20.70;99.90;;;21.08;75.98;101700.66;4996266;28;20047;-65
2021/07/10 07:12:48;;;;;;;41.70;31.13;;;20.60;99.90;;;21.33;74.92;101693.50;4996119;28;20416;-65
2021/07/10 07:15:16;;;;;;;42.08;30.27;;;20.80;99.90;;;21.46;73.89;101697.50;4996205;28;20054;-64
2021/07/10 07:17:45;;;;;;;42.72;31.17;;;21.10;99.90;;;21.47;73.07;101705.53;4994879;28;20058;-64
2021/07/10 07:20:16;;;;;;;42.42;29.95;;;21.10;99.90;;;21.53;74.02;101699.03;4995881;28;20545;-69
2021/07/10 07:22:48;;;;;;;39.03;28.58;;;21.10;99.90;;;21.68;73.74;101701.16;4994800;28;20558;-68
2021/07/10 07:25:20;;;;;;;42.08;29.17;;;21.30;99.90;;;21.66;72.56;101694.94;4995988;28;20061;-69
2021/07/10 07:27:51;;;;;;;40.05;29.08;;;21.30;99.90;;;21.83;72.42;101687.19;4995794;28;20050;-71
2021/07/10 07:30:20;;;;;;;39.88;30.27;;;21.50;99.90;;;21.94;71.63;101690.34;4996274;28;20070;-67
2021/07/10 07:32:49;;;;;;;44.03;31.52;;;21.60;99.90;;;22.06;71.25;101689.88;4995600;28;20466;-67
2021/07/10 07:35:18;;;;;;;43.38;31.27;;;21.70;99.90;;;22.08;71.06;101688.00;4995471;28;20388;-67
2021/07/10 07:37:49;;;;;;;41.22;28.95;;;21.70;99.90;;;22.13;70.56;101672.50;4995516;28;20407;-68
2021/07/10 07:40:18;;;;;;;43.05;30.90;;;21.80;99.90;;;22.33;69.53;101682.50;4995812;28;20046;-71
2021/07/10 07:42:48;;;;;;;40.42;28.48;;;22.00;99.90;;;22.47;69.45;101679.25;4995371;28;20042;-69
2021/07/10 07:45:18;;;;;;;41.63;30.73;;;22.10;99.90;;;22.59;68.48;101681.50;4995675;28;20046;-69
2021/07/10 07:47:47;;;;;;;42.90;31.80;;;22.20;99.90;;;22.75;68.61;101679.91;4994515;28;20553;-70
2021/07/10 07:50:19;;;;;;;39.55;29.75;;;22.40;99.90;;;22.34;68.19;101589.88;4995546;28;20065;-70
2021/07/10 07:52:50;;;;;;;44.40;33.53;;;22.50;99.90;;;23.01;66.93;101679.69;4994257;28;20050;-70
2021/07/10 07:55:20;;;;;;;40.45;30.23;;;22.70;99.90;;;23.15;66.72;101682.69;4995132;28;20081;-69
2021/07/10 07:57:48;;;;;;;41.57;32.30;;;22.80;99.90;;;23.28;65.82;101686.59;4995412;28;20455;-67
2021/07/10 08:00:21;;;;;;;42.30;30.75;;;22.90;99.90;;;23.39;65.70;101678.94;4995270;28;20104;-70
2021/07/10 08:02:55;;;;;;;36.90;31.17;;;23.10;99.90;;;23.44;65.15;101681.44;4995056;28;20046;-68
2021/07/10 08:05:23;;;;;;;38.05;31.60;;;23.10;99.90;;;22.87;64.66;101572.34;4995277;28;20392;-69
2021/07/10 08:07:54;;;;;;;41.28;31.20;;;23.10;99.90;;;23.37;64.12;101672.72;4994831;28;20407;-68
2021/07/10 08:10:22;;;;;;;39.72;30.38;;;23.10;99.90;;;23.42;64.75;101673.41;4995183;28;20050;-67
2021/07/10 08:12:51;;;;;;;35.38;28.52;;;23.10;99.90;;;23.23;63.17;101656.19;4994955;28;20435;-67
2021/07/10 08:15:22;;;;;;;32.65;26.70;;;23.00;99.90;;;23.36;63.66;101672.78;4995158;28;20042;-68
2021/07/10 08:17:52;;;;;;;32.65;27.35;;;23.00;99.90;;;23.46;63.56;101668.75;4995133;28;20053;-67
2021/07/10 08:20:22;;;;;;;32.22;26.95;;;23.10;99.90;;;23.43;63.64;101658.94;5009932;28;20049;-68
2021/07/10 08:22:53;;;;;;;33.47;25.48;;;23.10;99.90;;;23.53;63.23;101664.81;4994905;28;20106;-67
2021/07/10 08:25:22;;;;;;;30.73;25.63;;;23.20;99.90;;;23.41;62.61;101635.63;4993444;28;20106;-67
2021/07/10 08:27:51;;;;;;;37.78;30.02;;;23.20;99.90;;;23.65;63.22;101670.53;4994843;28;20065;-69
2021/07/10 08:30:21;;;;;;;33.35;28.55;;;23.30;99.90;;;23.70;63.58;101663.09;4994523;28;20471;-72
2021/07/10 08:32:50;;;;;;;35.93;27.53;;;23.30;99.90;;;23.70;63.01;101660.38;4994458;28;20043;-71
2021/07/10 08:35:21;;;;;;;35.15;28.70;;;23.30;99.90;;;23.63;62.94;101669.75;5010137;28;20297;-78
2021/07/10 08:37:50;;;;;;;37.92;28.23;;;23.30;99.90;;;23.68;62.90;101664.09;4994698;28;20050;-74
2021/07/10 08:40:22;;;;;;;37.97;30.75;;;23.30;99.90;;;23.67;62.84;101656.97;5009720;28;20046;-72
2021/07/10 08:42:52;;;;;;;39.00;29.63;;;23.30;99.90;;;23.68;62.30;101656.88;4994612;28;20042;-72
2021/07/10 08:45:21;;;;;;;43.13;32.15;;;23.30;99.90;;;23.52;62.90;101638.75;4994510;28;20046;-77
2021/07/10 08:47:50;;;;;;;40.80;31.05;;;23.20;99.90;;;23.66;63.17;101657.88;4994349;28;20148;-72
2021/07/10 08:50:21;;;;;;;42.55;33.97;;;23.30;99.90;;;23.73;64.08;101652.13;4994329;28;20065;-73
2021/07/10 08:52:51;;;;;;;38.38;31.48;;;23.40;99.90;;;23.67;62.22;101649.75;5009709;28;20050;-73
2021/07/10 08:55:22;;;;;;;40.08;33.58;;;23.40;99.90;;;23.75;61.96;101627.75;4994310;28;20145;-73
2021/07/10 08:57:52;;;;;;;39.45;33.13;;;23.60;99.90;;;23.97;61.63;101656.41;4994525;28;20049;-73
2021/07/10 09:00:25;;;;;;;32.42;27.85;;;23.60;99.90;;;23.92;60.05;101642.25;4994264;28;20046;-80
2021/07/10 09:02:56;;;;;;;32.55;25.48;;;23.60;99.90;;;24.00;60.04;101655.41;4994312;28;20053;-76
2021/07/10 09:05:25;;;;;;;36.50;29.50;;;23.70;99.90;;;24.08;60.63;101658.63;4994335;28;20046;-76
2021/07/10 09:08:20;;;;;;;37.25;29.67;;;23.70;99.90;;;24.15;59.33;101646.56;4994174;28;20473;-76
2021/07/10 09:10:55;;;;;;;35.28;28.27;;;23.80;99.90;;;24.15;59.44;101647.47;4994165;28;20137;-71
2021/07/10 09:13:33;;;;;;;29.70;25.83;;;23.80;99.90;;;24.18;59.38;101650.00;4994268;28;20053;-73
2021/07/10 09:16:08;;;;;;;35.38;27.98;;;23.90;99.90;;;24.23;59.04;101640.78;4994210;28;20047;-74
2021/07/10 09:18:44;;;;;;;37.58;29.17;;;23.90;99.90;;;24.26;59.16;101646.03;4994144;28;20053;-72
2021/07/10 09:21:16;;;;;;;34.50;29.90;;;23.90;99.90;;;24.11;58.85;101616.13;4993698;28;20050;-73
2021/07/10 09:23:46;;;;;;;31.27;27.90;;;23.90;99.90;;;22.63;58.72;101351.34;4993993;28;20052;-74
2021/07/10 09:26:34;;;;;;;32.67;27.10;;;23.90;99.90;;;24.35;58.27;101635.66;4993869;28;20377;-74
2021/07/10 09:29:08;;;;;;;34.38;29.35;;;24.00;99.90;;;24.48;58.00;101638.63;4993743;28;20053;-72
2021/07/10 09:31:40;;;;;;;33.42;28.98;;;24.10;99.90;;;24.44;58.02;101637.94;4993680;28;20480;-70
2021/07/10 09:34:13;;;;;;;34.85;29.27;;;24.10;99.90;;;24.45;58.42;101638.81;4993974;28;20054;-70
2021/07/10 09:36:55;;;;;;;33.47;27.15;;;24.10;99.90;;;24.50;57.82;101628.63;4993629;28;20038;-77
2021/07/10 09:39:27;;;;;;;32.90;27.73;;;24.20;99.90;;;24.64;57.73;101642.34;4993617;28;20046;-74
2021/07/10 09:41:59;;;;;;;39.85;30.95;;;24.30;99.90;;;24.69;57.77;101640.28;5008950;28;20051;-71
2021/07/10 09:44:42;;;;;;;33.10;28.52;;;24.40;99.90;;;24.89;57.86;101637.47;4993633;28;20053;-68
2021/07/10 09:47:11;;;;;;;35.10;28.88;;;24.50;99.90;;;24.85;57.50;101625.91;4993774;28;20105;-67
2021/07/10 09:49:42;;;;;;;32.70;28.27;;;24.60;99.90;;;25.08;57.02;101643.69;4993291;28;20070;-68
2021/07/10 09:52:14;;;;;;;34.97;29.40;;;24.70;99.90;;;25.12;56.61;101634.44;4993446;28;20488;-69
2021/07/10 09:54:45;;;;;;;35.03;29.20;;;24.80;99.90;;;25.02;56.61;101630.47;4993657;28;20101;-68
2021/07/10 09:57:18;;;;;;;38.40;30.17;;;24.70;99.90;;;24.88;56.61;101625.75;4993689;28;20447;-70
2021/07/10 09:59:51;;;;;;;30.23;24.55;;;24.60;99.90;;;24.47;56.00;101567.41;4993498;28;20058;-70
2021/07/10 10:02:28;;;;;;;33.50;26.58;;;24.50;99.90;;;24.80;55.91;101621.69;4992037;28;20049;-70
2021/07/10 10:05:02;;;;;;;28.92;24.52;;;24.40;99.90;;;24.66;56.15;101605.25;4993698;28;20049;-71
2021/07/10 10:07:45;;;;;;;35.75;26.60;;;24.40;99.90;;;24.75;56.37;101630.06;4993510;28;20101;-71
2021/07/10 10:10:24;;;;;;;32.97;27.30;;;24.40;99.90;;;24.84;57.41;101623.28;4995273;28;20081;-70
2021/07/10 10:13:14;;;;;;;35.67;25.77;;;24.40;99.90;;;24.52;56.89;101556.38;4997455;28;20050;-70